createdAt,value
2022-11-10T00:00:09.099Z,83.63
2022-11-10T00:00:29.156Z,83.6
2022-11-10T00:00:49.216Z,83.59
2022-11-10T00:01:09.275Z,83.57
2022-11-10T00:01:29.327Z,83.52
2022-11-10T00:01:49.375Z,83.45
2022-11-10T00:02:09.438Z,83.47
2022-11-10T00:02:29.491Z,83.5
2022-11-10T00:02:49.549Z,83.7
2022-11-10T00:03:09.694Z,83.73
2022-11-10T00:03:29.660Z,83.82
2022-11-10T00:03:49.801Z,83.87
2022-11-10T00:04:09.836Z,83.85
2022-11-10T00:04:29.960Z,83.96
2022-11-10T00:04:49.889Z,83.98
2022-11-10T00:05:09.951Z,83.83
2022-11-10T00:05:30.010Z,83.77
2022-11-10T00:05:50.045Z,83.88
2022-11-10T00:06:10.118Z,84.05
2022-11-10T00:06:30.246Z,84.22
2022-11-10T00:06:50.310Z,84.36
2022-11-10T00:07:10.366Z,84.42
2022-11-10T00:07:30.356Z,84.51
2022-11-10T00:07:50.400Z,84.71
2022-11-10T00:08:10.556Z,84.84
2022-11-10T00:08:30.520Z,84.88
2022-11-10T00:08:50.574Z,84.97
2022-11-10T00:09:10.637Z,85.01
2022-11-10T00:09:30.684Z,85.01
2022-11-10T00:09:50.744Z,85.1
2022-11-10T00:10:10.771Z,85.09
2022-11-10T00:10:30.852Z,85.13
2022-11-10T00:10:50.926Z,85.08
2022-11-10T00:11:10.980Z,85.09
2022-11-10T00:11:31.032Z,85.03
2022-11-10T00:11:51.081Z,85.02
2022-11-10T00:12:11.150Z,85.03
2022-11-10T00:12:31.210Z,85
2022-11-10T00:12:51.254Z,85.09
2022-11-10T00:13:11.521Z,85.13
2022-11-10T00:13:31.375Z,85.19
2022-11-10T00:13:51.421Z,85.2
2022-11-10T00:14:11.480Z,85.27
2022-11-10T00:14:31.547Z,85.28
2022-11-10T00:14:51.596Z,85.22
2022-11-10T00:15:11.652Z,85.17
2022-11-10T00:15:31.698Z,85.08
2022-11-10T00:15:51.764Z,85.08
2022-11-10T00:16:11.821Z,85.05
2022-11-10T00:16:31.930Z,85.18
2022-11-10T00:16:51.934Z,85.24
2022-11-10T00:17:11.994Z,85.17
2022-11-10T00:17:32.043Z,85.17
2022-11-10T00:17:52.094Z,85.14
2022-11-10T00:18:12.349Z,85.02
2022-11-10T00:18:32.214Z,84.91
2022-11-10T00:18:52.271Z,85.03
2022-11-10T00:19:12.331Z,84.99
2022-11-10T00:19:32.379Z,84.99
2022-11-10T00:19:52.428Z,85
2022-11-10T00:20:12.501Z,84.91
2022-11-10T00:20:32.563Z,84.89
2022-11-10T00:20:52.611Z,84.99
2022-11-10T00:21:12.669Z,84.93
2022-11-10T00:21:32.727Z,84.78
2022-11-10T00:21:52.789Z,84.72
2022-11-10T00:22:12.836Z,84.68
2022-11-10T00:22:32.881Z,84.7
2022-11-10T00:22:52.943Z,84.72
2022-11-10T00:23:13.100Z,84.78
2022-11-10T00:23:33.064Z,84.87
2022-11-10T00:23:53.124Z,84.96
2022-11-10T00:24:13.196Z,84.89
2022-11-10T00:24:33.247Z,84.92
2022-11-10T00:24:53.297Z,85.05
2022-11-10T00:25:13.348Z,85.11
2022-11-10T00:25:33.401Z,85.03
2022-11-10T00:25:53.461Z,84.93
2022-11-10T00:26:13.511Z,84.86
2022-11-10T00:26:33.556Z,84.75
2022-11-10T00:26:53.609Z,84.67
2022-11-10T00:27:13.656Z,84.7
2022-11-10T00:27:33.716Z,84.6
2022-11-10T00:27:53.776Z,84.55
2022-11-10T00:28:14.005Z,84.51
2022-11-10T00:28:33.893Z,84.52
2022-11-10T00:28:53.929Z,84.63
2022-11-10T00:29:13.983Z,84.73
2022-11-10T00:29:34.046Z,84.72
2022-11-10T00:29:54.108Z,84.75
2022-11-10T00:30:14.148Z,84.65
2022-11-10T00:30:34.170Z,84.81
2022-11-10T00:30:54.257Z,84.88
2022-11-10T00:31:14.307Z,84.72
2022-11-10T00:31:34.361Z,84.64
2022-11-10T00:31:54.428Z,84.59
2022-11-10T00:32:14.483Z,84.56
2022-11-10T00:32:34.535Z,84.59
2022-11-10T00:32:54.560Z,84.63
2022-11-10T00:33:14.847Z,84.64
2022-11-10T00:33:34.715Z,84.66
2022-11-10T00:33:54.768Z,84.66
2022-11-10T00:34:14.821Z,84.74
2022-11-10T00:34:34.873Z,84.94
2022-11-10T00:34:54.928Z,85.04
2022-11-10T00:35:14.985Z,85.21
2022-11-10T00:35:35.036Z,85.15
2022-11-10T00:35:55.086Z,84.99
2022-11-10T00:36:15.143Z,84.88
2022-11-10T00:36:35.203Z,84.83
2022-11-10T00:36:55.274Z,84.8
2022-11-10T00:37:15.325Z,84.75
2022-11-10T00:37:35.387Z,84.75
2022-11-10T00:37:55.435Z,84.81
2022-11-10T00:38:15.562Z,84.86
2022-11-10T00:38:35.537Z,84.91
2022-11-10T00:38:55.590Z,85.04
2022-11-10T00:39:15.649Z,85.06
2022-11-10T00:39:35.693Z,84.96
2022-11-10T00:39:55.760Z,85.04
2022-11-10T00:40:15.809Z,85.25
2022-11-10T00:40:35.876Z,85.34
2022-11-10T00:40:55.934Z,85.34
2022-11-10T00:41:16.001Z,85.36
2022-11-10T00:41:36.064Z,85.42
2022-11-10T00:41:56.108Z,85.47
2022-11-10T00:42:16.166Z,85.53
2022-11-10T00:42:36.218Z,85.54
2022-11-10T00:42:56.271Z,85.63
2022-11-10T00:43:16.516Z,85.71
2022-11-10T00:43:36.419Z,85.8
2022-11-10T00:43:56.439Z,85.8
2022-11-10T00:44:16.496Z,85.86
2022-11-10T00:44:36.548Z,85.81
2022-11-10T00:44:56.607Z,85.76
2022-11-10T00:45:16.664Z,85.86
2022-11-10T00:45:36.719Z,85.96
2022-11-10T00:45:56.772Z,86.05
2022-11-10T00:46:16.824Z,86.12
2022-11-10T00:46:36.883Z,86.37
2022-11-10T00:46:56.935Z,86.55
2022-11-10T00:47:16.986Z,86.58
2022-11-10T00:47:37.043Z,86.57
2022-11-10T00:47:57.095Z,86.51
2022-11-10T00:48:17.332Z,86.42
2022-11-10T00:48:37.205Z,86.44
2022-11-10T00:48:57.261Z,86.48
2022-11-10T00:49:17.312Z,86.6
2022-11-10T00:49:37.363Z,86.65
2022-11-10T00:49:57.421Z,86.8
2022-11-10T00:50:17.472Z,86.79
2022-11-10T00:50:37.534Z,86.69
2022-11-10T00:50:57.594Z,86.61
2022-11-10T00:51:17.636Z,86.42
2022-11-10T00:51:37.705Z,86.35
2022-11-10T00:51:57.765Z,86.38
2022-11-10T00:52:17.810Z,86.48
2022-11-10T00:52:37.871Z,86.51
2022-11-10T00:52:57.924Z,86.48
2022-11-10T00:53:18.298Z,86.57
2022-11-10T00:53:38.043Z,86.63
2022-11-10T00:53:58.100Z,86.66
2022-11-10T00:54:18.159Z,86.74
2022-11-10T00:54:38.217Z,86.73
2022-11-10T00:54:58.279Z,86.67
2022-11-10T00:55:18.329Z,86.54
2022-11-10T00:55:38.385Z,86.57
2022-11-10T00:55:58.445Z,86.61
2022-11-10T00:56:18.499Z,86.63
2022-11-10T00:56:38.557Z,86.73
2022-11-10T00:56:58.615Z,86.78
2022-11-10T00:57:18.664Z,86.81
2022-11-10T00:57:38.781Z,86.93
2022-11-10T00:57:58.775Z,86.95
2022-11-10T00:58:18.930Z,86.93
2022-11-10T00:58:38.878Z,86.97
2022-11-10T00:58:58.939Z,86.94
2022-11-10T00:59:18.992Z,86.92
2022-11-10T00:59:39.035Z,86.94
2022-11-10T00:59:59.105Z,86.91
2022-11-10T01:00:19.157Z,87.01
2022-11-10T01:00:39.207Z,87.23
2022-11-10T01:00:59.317Z,87.26
2022-11-10T01:01:19.395Z,87.22
2022-11-10T01:01:39.484Z,87.12
2022-11-10T01:01:59.446Z,87.07
2022-11-10T01:02:19.484Z,87.1
2022-11-10T01:02:39.556Z,87.17
2022-11-10T01:02:59.607Z,87.21
2022-11-10T01:03:20.186Z,87.27
2022-11-10T01:03:39.724Z,87.28
2022-11-10T01:03:59.805Z,87.3
2022-11-10T01:04:19.859Z,87.37
2022-11-10T01:04:39.913Z,87.33
2022-11-10T01:05:00.001Z,87.19
2022-11-10T01:05:20.089Z,87.2
2022-11-10T01:05:40.156Z,87.27
2022-11-10T01:06:00.236Z,87.21
2022-11-10T01:06:20.293Z,87.3
2022-11-10T01:06:40.413Z,87.39
2022-11-10T01:07:00.519Z,87.4
2022-11-10T01:07:20.506Z,87.37
2022-11-10T01:07:40.565Z,87.4
2022-11-10T01:08:00.645Z,87.41
2022-11-10T01:08:20.867Z,87.49
2022-11-10T01:08:40.809Z,87.42
2022-11-10T01:09:00.942Z,87.39
2022-11-10T01:09:20.948Z,87.38
2022-11-10T01:09:41.020Z,87.34
2022-11-10T01:10:01.090Z,87.4
2022-11-10T01:10:21.143Z,87.41
2022-11-10T01:10:41.238Z,87.2
2022-11-10T01:11:01.307Z,87.07
2022-11-10T01:11:21.389Z,87.05
2022-11-10T01:11:41.458Z,87.07
2022-11-10T01:12:01.532Z,87.07
2022-11-10T01:12:21.609Z,87.1
2022-11-10T01:12:41.662Z,87.03
2022-11-10T01:13:01.725Z,86.92
2022-11-10T01:13:22.235Z,86.84
2022-11-10T01:13:41.849Z,86.99
2022-11-10T01:14:01.934Z,87.12
2022-11-10T01:14:22.013Z,87.06
2022-11-10T01:14:42.097Z,86.85
2022-11-10T01:15:02.173Z,86.76
2022-11-10T01:15:27.264Z,86.69
2022-11-10T01:15:42.370Z,86.63
2022-11-10T01:16:02.463Z,86.6
2022-11-10T01:16:22.541Z,86.58
2022-11-10T01:16:42.606Z,86.51
2022-11-10T01:17:02.681Z,86.48
2022-11-10T01:17:22.747Z,86.49
2022-11-10T01:17:42.811Z,86.46
2022-11-10T01:18:02.869Z,86.48
2022-11-10T01:18:23.134Z,86.44
2022-11-10T01:18:42.986Z,86.38
2022-11-10T01:19:03.469Z,86.49
2022-11-10T01:19:23.182Z,86.62
2022-11-10T01:19:43.185Z,86.66
2022-11-10T01:20:03.269Z,86.68
2022-11-10T01:20:23.365Z,86.69
2022-11-10T01:20:43.440Z,86.78
2022-11-10T01:21:03.531Z,86.88
2022-11-10T01:21:23.606Z,86.92
2022-11-10T01:21:43.649Z,86.85
2022-11-10T01:22:03.739Z,86.84
2022-11-10T01:22:23.824Z,86.99
2022-11-10T01:22:43.881Z,87.11
2022-11-10T01:23:03.959Z,87.24
2022-11-10T01:23:24.620Z,87.15
2022-11-10T01:23:44.115Z,86.95
2022-11-10T01:24:04.193Z,86.96
2022-11-10T01:24:24.263Z,86.99
2022-11-10T01:24:44.342Z,86.99
2022-11-10T01:25:04.449Z,87.04
2022-11-10T01:25:24.501Z,86.98
2022-11-10T01:25:44.592Z,86.91
2022-11-10T01:26:04.643Z,87.17
2022-11-10T01:26:24.730Z,87.21
2022-11-10T01:26:44.835Z,87.21
2022-11-10T01:27:04.893Z,87.21
2022-11-10T01:27:24.937Z,87.23
2022-11-10T01:27:45.002Z,87.31
2022-11-10T01:28:05.067Z,87.42
2022-11-10T01:28:25.310Z,87.46
2022-11-10T01:28:45.224Z,87.48
2022-11-10T01:29:05.283Z,87.39
2022-11-10T01:29:25.353Z,87.36
2022-11-10T01:29:45.416Z,87.24
2022-11-10T01:30:05.514Z,86.95
2022-11-10T01:30:25.579Z,86.95
2022-11-10T01:30:45.670Z,87.05
2022-11-10T01:31:05.739Z,87.13
2022-11-10T01:31:25.805Z,87.21
2022-11-10T01:31:45.872Z,87.4
2022-11-10T01:32:05.918Z,87.69
2022-11-10T01:32:26.012Z,87.74
2022-11-10T01:32:46.073Z,87.7
2022-11-10T01:33:06.134Z,87.64
2022-11-10T01:33:26.403Z,87.59
2022-11-10T01:33:46.268Z,87.56
2022-11-10T01:34:06.336Z,87.55
2022-11-10T01:34:26.392Z,87.58
2022-11-10T01:34:46.478Z,87.71
2022-11-10T01:35:06.553Z,87.83
2022-11-10T01:35:26.621Z,87.96
2022-11-10T01:35:46.706Z,87.96
2022-11-10T01:36:06.793Z,87.98
2022-11-10T01:36:26.861Z,87.97
2022-11-10T01:36:46.949Z,87.83
2022-11-10T01:37:07.013Z,87.75
2022-11-10T01:37:27.075Z,87.97
2022-11-10T01:37:47.148Z,88.03
2022-11-10T01:38:07.247Z,88.11
2022-11-10T01:38:27.417Z,88.26
2022-11-10T01:38:47.410Z,88.39
2022-11-10T01:39:07.480Z,88.6
2022-11-10T01:39:27.555Z,88.6
2022-11-10T01:39:47.651Z,88.53
2022-11-10T01:40:07.789Z,88.46
2022-11-10T01:40:27.883Z,88.41
2022-11-10T01:40:47.890Z,88.5
2022-11-10T01:41:07.942Z,88.49
2022-11-10T01:41:27.996Z,88.51
2022-11-10T01:41:48.069Z,88.62
2022-11-10T01:42:08.115Z,88.66
2022-11-10T01:42:28.182Z,88.66
2022-11-10T01:42:48.229Z,88.64
2022-11-10T01:43:08.284Z,88.59
2022-11-10T01:43:28.514Z,88.5
2022-11-10T01:43:48.395Z,88.4
2022-11-10T01:44:08.475Z,88.39
2022-11-10T01:44:28.508Z,88.38
2022-11-10T01:44:48.573Z,88.43
2022-11-10T01:45:08.625Z,88.44
2022-11-10T01:45:28.679Z,88.49
2022-11-10T01:45:48.737Z,88.68
2022-11-10T01:46:08.794Z,88.75
2022-11-10T01:46:28.851Z,88.65
2022-11-10T01:46:48.903Z,88.59
2022-11-10T01:47:08.974Z,88.65
2022-11-10T01:47:29.010Z,88.75
2022-11-10T01:47:49.067Z,88.77
2022-11-10T01:48:09.121Z,88.75
2022-11-10T01:48:29.267Z,88.75
2022-11-10T01:48:49.235Z,88.69
2022-11-10T01:49:09.300Z,88.69
2022-11-10T01:49:29.350Z,88.61
2022-11-10T01:49:49.399Z,88.6
2022-11-10T01:50:09.458Z,88.56
2022-11-10T01:50:29.512Z,88.52
2022-11-10T01:50:49.577Z,88.49
2022-11-10T01:51:09.624Z,88.56
2022-11-10T01:51:29.672Z,88.54
2022-11-10T01:51:49.743Z,88.69
2022-11-10T01:52:09.801Z,88.71
2022-11-10T01:52:29.926Z,88.65
2022-11-10T01:52:49.911Z,88.83
2022-11-10T01:53:09.981Z,88.93
2022-11-10T01:53:30.118Z,89.08
2022-11-10T01:53:50.077Z,89.16
2022-11-10T01:54:10.148Z,89
2022-11-10T01:54:30.201Z,88.87
2022-11-10T01:54:50.260Z,88.86
2022-11-10T01:55:10.393Z,88.74
2022-11-10T01:55:30.359Z,88.74
2022-11-10T01:55:50.431Z,88.74
2022-11-10T01:56:10.500Z,88.99
2022-11-10T01:56:30.575Z,89.15
2022-11-10T01:56:50.600Z,89.17
2022-11-10T01:57:10.654Z,89.24
2022-11-10T01:57:30.716Z,89.33
2022-11-10T01:57:50.765Z,89.44
2022-11-10T01:58:10.813Z,89.49
2022-11-10T01:58:31.037Z,89.48
2022-11-10T01:58:50.929Z,89.44
2022-11-10T01:59:10.983Z,89.43
2022-11-10T01:59:31.041Z,89.48
2022-11-10T01:59:51.094Z,89.66
2022-11-10T02:00:11.153Z,89.86
2022-11-10T02:00:31.296Z,90.03
2022-11-10T02:00:51.321Z,90.24
2022-11-10T02:01:11.356Z,90.3
2022-11-10T02:01:31.365Z,90.29
2022-11-10T02:01:51.421Z,90.25
2022-11-10T02:02:11.474Z,90.4
2022-11-10T02:02:31.536Z,90.51
2022-11-10T02:02:51.583Z,90.58
2022-11-10T02:03:11.638Z,90.63
2022-11-10T02:03:31.797Z,90.63
2022-11-10T02:03:51.739Z,90.63
2022-11-10T02:04:11.775Z,90.58
2022-11-10T02:04:31.857Z,90.7
2022-11-10T02:04:51.915Z,90.78
2022-11-10T02:05:11.963Z,90.84
2022-11-10T02:05:32.040Z,90.84
2022-11-10T02:05:52.069Z,90.9
2022-11-10T02:06:12.130Z,90.86
2022-11-10T02:06:32.248Z,90.75
2022-11-10T02:06:52.280Z,90.68
2022-11-10T02:07:12.343Z,90.71
2022-11-10T02:07:32.346Z,90.68
2022-11-10T02:07:52.397Z,90.74
2022-11-10T02:08:12.458Z,90.87
2022-11-10T02:08:32.594Z,90.82
2022-11-10T02:08:52.558Z,90.83
2022-11-10T02:09:12.616Z,90.8
2022-11-10T02:09:32.661Z,90.74
2022-11-10T02:09:52.714Z,90.74
2022-11-10T02:10:12.783Z,90.78
2022-11-10T02:10:32.837Z,90.83
2022-11-10T02:10:52.883Z,90.86
2022-11-10T02:11:12.942Z,90.92
2022-11-10T02:11:32.986Z,90.85
2022-11-10T02:11:53.050Z,90.78
2022-11-10T02:12:13.113Z,90.85
2022-11-10T02:12:33.197Z,90.96
2022-11-10T02:12:53.219Z,91.09
2022-11-10T02:13:13.275Z,91.2
2022-11-10T02:13:33.538Z,91.23
2022-11-10T02:13:53.382Z,91.26
2022-11-10T02:14:13.447Z,91.24
2022-11-10T02:14:33.501Z,91.15
2022-11-10T02:14:53.552Z,91.08
2022-11-10T02:15:13.614Z,91.09
2022-11-10T02:15:33.664Z,91.21
2022-11-10T02:15:53.716Z,91.27
2022-11-10T02:16:13.774Z,91.25
2022-11-10T02:16:33.834Z,91.19
2022-11-10T02:16:53.897Z,91.13
2022-11-10T02:17:13.943Z,91.08
2022-11-10T02:17:34.039Z,91.03
2022-11-10T02:17:54.121Z,90.99
2022-11-10T02:18:14.181Z,91.14
2022-11-10T02:18:34.416Z,91.2
2022-11-10T02:18:54.285Z,91.26
2022-11-10T02:19:14.397Z,91.28
2022-11-10T02:19:34.438Z,91.37
2022-11-10T02:19:54.500Z,91.45
2022-11-10T02:20:14.559Z,91.43
2022-11-10T02:20:34.599Z,91.52
2022-11-10T02:20:54.683Z,91.61
2022-11-10T02:21:14.722Z,91.58
2022-11-10T02:21:34.770Z,91.51
2022-11-10T02:21:54.825Z,91.49
2022-11-10T02:22:14.879Z,91.53
2022-11-10T02:22:34.959Z,91.59
2022-11-10T02:22:54.990Z,91.55
2022-11-10T02:23:15.057Z,91.53
2022-11-10T02:23:35.190Z,91.58
2022-11-10T02:23:55.167Z,91.6
2022-11-10T02:24:15.229Z,91.58
2022-11-10T02:24:35.280Z,91.65
2022-11-10T02:24:55.330Z,91.64
2022-11-10T02:25:15.382Z,91.59
2022-11-10T02:25:35.431Z,91.51
2022-11-10T02:25:55.480Z,91.43
2022-11-10T02:26:15.544Z,91.4
2022-11-10T02:26:35.604Z,91.33
2022-11-10T02:26:55.671Z,91.25
2022-11-10T02:27:15.732Z,91.17
2022-11-10T02:27:35.781Z,91.26
2022-11-10T02:27:55.839Z,91.38
2022-11-10T02:28:15.900Z,91.43
2022-11-10T02:28:36.048Z,91.37
2022-11-10T02:28:55.997Z,91.28
2022-11-10T02:29:16.054Z,91.2
2022-11-10T02:29:36.115Z,91.26
2022-11-10T02:29:56.167Z,91.36
2022-11-10T02:30:16.223Z,91.5
2022-11-10T02:30:36.284Z,91.53
2022-11-10T02:30:56.340Z,91.55
2022-11-10T02:31:16.383Z,91.58
2022-11-10T02:31:36.447Z,91.54
2022-11-10T02:31:56.503Z,91.6
2022-11-10T02:32:16.548Z,91.73
2022-11-10T02:32:36.615Z,91.75
2022-11-10T02:32:56.675Z,91.74
2022-11-10T02:33:16.723Z,91.72
2022-11-10T02:33:36.869Z,91.64
2022-11-10T02:33:56.832Z,91.76
2022-11-10T02:34:16.919Z,91.89
2022-11-10T02:34:36.951Z,92.14
2022-11-10T02:34:57.006Z,92.38
2022-11-10T02:35:17.067Z,92.45
2022-11-10T02:35:37.103Z,92.5
2022-11-10T02:35:57.177Z,92.73
2022-11-10T02:36:17.223Z,92.93
2022-11-10T02:36:37.282Z,93.02
2022-11-10T02:36:57.334Z,93.17
2022-11-10T02:37:17.396Z,93.2
2022-11-10T02:37:37.458Z,93.22
2022-11-10T02:37:57.514Z,93.24
2022-11-10T02:38:17.641Z,93.23
2022-11-10T02:38:37.729Z,93.22
2022-11-10T02:38:57.684Z,93.22
2022-11-10T02:39:17.742Z,93.27
2022-11-10T02:39:37.802Z,93.23
2022-11-10T02:39:57.845Z,93.12
2022-11-10T02:40:17.914Z,93.07
2022-11-10T02:40:37.950Z,92.92
2022-11-10T02:40:58.015Z,92.85
2022-11-10T02:41:18.072Z,92.81
2022-11-10T02:41:38.128Z,92.77
2022-11-10T02:41:58.185Z,92.68
2022-11-10T02:42:18.231Z,92.72
2022-11-10T02:42:38.258Z,92.91
2022-11-10T02:42:58.346Z,93.12
2022-11-10T02:43:18.434Z,93.28
2022-11-10T02:43:38.551Z,93.31
2022-11-10T02:43:58.515Z,93.3
2022-11-10T02:44:18.579Z,93.34
2022-11-10T02:44:38.623Z,93.4
2022-11-10T02:44:58.694Z,93.42
2022-11-10T02:45:18.752Z,93.43
2022-11-10T02:45:38.808Z,93.44
2022-11-10T02:45:58.871Z,93.54
2022-11-10T02:46:18.914Z,93.5
2022-11-10T02:46:38.980Z,93.48
2022-11-10T02:46:59.042Z,93.49
2022-11-10T02:47:19.085Z,93.64
2022-11-10T02:47:39.152Z,93.72
2022-11-10T02:47:59.205Z,93.79
2022-11-10T02:48:19.257Z,93.72
2022-11-10T02:48:39.407Z,93.65
2022-11-10T02:48:59.384Z,93.62
2022-11-10T02:49:19.432Z,93.65
2022-11-10T02:49:39.488Z,93.64
2022-11-10T02:49:59.546Z,93.69
2022-11-10T02:50:19.603Z,93.71
2022-11-10T02:50:39.658Z,93.81
2022-11-10T02:50:59.712Z,93.93
2022-11-10T02:51:19.774Z,94.11
2022-11-10T02:51:39.842Z,94.22
2022-11-10T02:51:59.883Z,94.23
2022-11-10T02:52:19.946Z,94.21
2022-11-10T02:52:39.988Z,94.26
2022-11-10T02:53:00.048Z,94.25
2022-11-10T02:53:20.425Z,94.23
2022-11-10T02:53:40.271Z,94.25
2022-11-10T02:54:00.227Z,94.32
2022-11-10T02:54:20.289Z,94.37
2022-11-10T02:54:40.334Z,94.38
2022-11-10T02:55:00.393Z,94.32
2022-11-10T02:55:20.455Z,94.31
2022-11-10T02:55:40.512Z,94.34
2022-11-10T02:56:00.555Z,94.34
2022-11-10T02:56:20.621Z,94.33
2022-11-10T02:56:40.685Z,94.44
2022-11-10T02:57:00.738Z,94.71
2022-11-10T02:57:20.809Z,94.9
2022-11-10T02:57:40.847Z,94.99
2022-11-10T02:58:00.890Z,94.98
2022-11-10T02:58:20.960Z,94.88
2022-11-10T02:58:41.122Z,94.75
2022-11-10T02:59:01.058Z,94.67
2022-11-10T02:59:21.123Z,94.72
2022-11-10T02:59:41.180Z,94.87
2022-11-10T03:00:01.245Z,95
2022-11-10T03:00:21.301Z,95.06
2022-11-10T03:00:41.339Z,95.11
2022-11-10T03:01:01.442Z,95.03
2022-11-10T03:01:21.529Z,94.96
2022-11-10T03:01:41.596Z,94.99
2022-11-10T03:02:01.571Z,94.96
2022-11-10T03:02:21.631Z,94.9
2022-11-10T03:02:41.677Z,94.84
2022-11-10T03:03:01.727Z,94.87
2022-11-10T03:03:22.256Z,94.89
2022-11-10T03:03:41.928Z,94.88
2022-11-10T03:04:01.894Z,94.87
2022-11-10T03:04:21.921Z,94.86
2022-11-10T03:04:42.008Z,94.84
2022-11-10T03:05:02.080Z,94.85
2022-11-10T03:05:22.143Z,94.84
2022-11-10T03:05:42.190Z,94.81
2022-11-10T03:06:02.251Z,94.79
2022-11-10T03:06:22.304Z,94.76
2022-11-10T03:06:42.387Z,94.75
2022-11-10T03:07:02.488Z,94.72
2022-11-10T03:07:22.465Z,94.63
2022-11-10T03:07:42.533Z,94.58
2022-11-10T03:08:02.574Z,94.61
2022-11-10T03:08:22.645Z,94.78
2022-11-10T03:08:42.789Z,94.92
2022-11-10T03:09:02.749Z,95.2
2022-11-10T03:09:22.806Z,95.37
2022-11-10T03:09:42.862Z,95.67
2022-11-10T03:10:02.917Z,95.72
2022-11-10T03:10:22.973Z,95.85
2022-11-10T03:10:43.029Z,95.94
2022-11-10T03:11:03.082Z,95.97
2022-11-10T03:11:25.784Z,95.97
2022-11-10T03:11:43.184Z,95.97
2022-11-10T03:12:03.247Z,96.01
2022-11-10T03:12:23.304Z,96.02
2022-11-10T03:12:43.363Z,96.01
2022-11-10T03:13:03.424Z,95.94
2022-11-10T03:13:23.843Z,95.86
2022-11-10T03:14:00.472Z,95.79
2022-11-10T03:14:03.587Z,95.57
2022-11-10T03:14:23.629Z,95.51
2022-11-10T03:14:43.697Z,95.39
2022-11-10T03:15:03.758Z,95.23
2022-11-10T03:15:23.802Z,95.18
2022-11-10T03:15:43.857Z,95.15
2022-11-10T03:16:03.910Z,95.07
2022-11-10T03:16:23.969Z,95.06
2022-11-10T03:16:44.039Z,95.01
2022-11-10T03:17:04.084Z,94.98
2022-11-10T03:17:24.137Z,95.03
2022-11-10T03:17:44.191Z,95.06
2022-11-10T03:18:04.256Z,95.05
2022-11-10T03:18:24.312Z,95.07
2022-11-10T03:18:44.477Z,95.12
2022-11-10T03:19:04.420Z,95.26
2022-11-10T03:19:24.483Z,95.3
2022-11-10T03:19:44.533Z,95.31
2022-11-10T03:20:04.590Z,95.42
2022-11-10T03:20:24.653Z,95.53
2022-11-10T03:20:44.727Z,95.59
2022-11-10T03:21:04.768Z,95.54
2022-11-10T03:21:24.817Z,95.51
2022-11-10T03:21:44.863Z,95.48
2022-11-10T03:22:04.920Z,95.37
2022-11-10T03:22:24.990Z,95.35
2022-11-10T03:22:45.036Z,95.26
2022-11-10T03:23:05.099Z,95.27
2022-11-10T03:23:25.437Z,95.27
2022-11-10T03:23:45.299Z,95.31
2022-11-10T03:24:05.273Z,95.36
2022-11-10T03:24:25.321Z,95.38
2022-11-10T03:24:45.376Z,95.38
2022-11-10T03:25:05.434Z,95.44
2022-11-10T03:25:25.488Z,95.5
2022-11-10T03:25:45.542Z,95.54
2022-11-10T03:26:05.598Z,95.51
2022-11-10T03:26:25.654Z,95.48
2022-11-10T03:26:45.698Z,95.46
2022-11-10T03:27:05.754Z,95.46
2022-11-10T03:27:25.813Z,95.46
2022-11-10T03:27:45.869Z,95.48
2022-11-10T03:28:05.910Z,95.43
2022-11-10T03:28:25.981Z,95.39
2022-11-10T03:28:46.144Z,95.35
2022-11-10T03:29:06.063Z,95.27
2022-11-10T03:29:26.142Z,95.26
2022-11-10T03:29:46.185Z,95.22
2022-11-10T03:30:06.255Z,95.24
2022-11-10T03:30:26.314Z,95.31
2022-11-10T03:30:46.385Z,95.38
2022-11-10T03:31:06.442Z,95.51
2022-11-10T03:31:26.482Z,95.55
2022-11-10T03:31:46.534Z,95.56
2022-11-10T03:32:06.597Z,95.59
2022-11-10T03:32:26.646Z,95.66
2022-11-10T03:32:46.692Z,95.6
2022-11-10T03:33:06.752Z,95.57
2022-11-10T03:33:26.816Z,95.58
2022-11-10T03:33:46.948Z,95.65
2022-11-10T03:34:06.929Z,95.74
2022-11-10T03:34:30.776Z,95.83
2022-11-10T03:34:47.040Z,95.98
2022-11-10T03:35:07.102Z,96.01
2022-11-10T03:35:27.152Z,96.01
2022-11-10T03:35:47.204Z,95.98
2022-11-10T03:36:07.268Z,95.96
2022-11-10T03:36:27.396Z,95.95
2022-11-10T03:36:47.379Z,95.93
2022-11-10T03:37:07.422Z,95.96
2022-11-10T03:37:27.478Z,95.94
2022-11-10T03:37:47.523Z,96
2022-11-10T03:38:07.594Z,95.98
2022-11-10T03:38:27.642Z,96.05
2022-11-10T03:38:47.786Z,96.18
2022-11-10T03:39:07.749Z,96.29
2022-11-10T03:39:27.807Z,96.42
2022-11-10T03:39:47.877Z,96.49
2022-11-10T03:40:07.919Z,96.47
2022-11-10T03:40:27.982Z,96.51
2022-11-10T03:41:17.451Z,96.52
2022-11-10T03:41:23.593Z,96.6
2022-11-10T03:41:28.132Z,96.6
2022-11-10T03:41:48.201Z,96.7
2022-11-10T03:42:08.255Z,96.79
2022-11-10T03:42:28.304Z,96.78
2022-11-10T03:42:48.362Z,96.79
2022-11-10T03:43:08.402Z,96.76
2022-11-10T03:43:28.465Z,96.73
2022-11-10T03:43:48.605Z,96.72
2022-11-10T03:44:08.571Z,96.7
2022-11-10T03:44:28.623Z,96.68
2022-11-10T03:44:48.676Z,96.68
2022-11-10T03:45:08.732Z,96.64
2022-11-10T03:45:28.788Z,96.66
2022-11-10T03:45:48.843Z,96.7
2022-11-10T03:46:08.895Z,96.8
2022-11-10T03:46:29.072Z,96.84
2022-11-10T03:46:51.546Z,96.88
2022-11-10T03:47:09.061Z,96.92
2022-11-10T03:47:29.117Z,96.92
2022-11-10T03:47:49.173Z,96.89
2022-11-10T03:48:09.225Z,96.89
2022-11-10T03:48:29.291Z,96.88
2022-11-10T03:48:53.466Z,96.86
2022-11-10T03:49:09.403Z,96.87
2022-11-10T03:49:29.454Z,96.86
2022-11-10T03:49:49.503Z,96.86
2022-11-10T03:50:09.549Z,96.88
2022-11-10T03:50:29.838Z,96.86
2022-11-10T03:50:49.671Z,96.92
2022-11-10T03:51:09.725Z,96.89
2022-11-10T03:51:29.780Z,96.96
2022-11-10T03:51:49.842Z,97
2022-11-10T03:52:09.883Z,97.04
2022-11-10T03:52:29.948Z,97.05
2022-11-10T03:52:49.997Z,97
2022-11-10T03:53:10.049Z,96.96
2022-11-10T03:53:30.119Z,96.91
2022-11-10T03:53:50.251Z,96.88
2022-11-10T03:54:10.216Z,96.82
2022-11-10T03:54:30.269Z,96.81
2022-11-10T03:54:50.321Z,96.74
2022-11-10T03:55:10.384Z,96.71
2022-11-10T03:55:30.434Z,96.64
2022-11-10T03:55:50.487Z,96.56
2022-11-10T03:56:10.541Z,96.56
2022-11-10T03:56:30.623Z,96.6
2022-11-10T03:56:50.654Z,96.65
2022-11-10T03:57:10.713Z,96.66
2022-11-10T03:57:30.765Z,96.66
2022-11-10T03:57:50.821Z,96.64
2022-11-10T03:58:10.868Z,96.66
2022-11-10T03:58:30.925Z,96.72
2022-11-10T03:58:51.074Z,96.81
2022-11-10T03:59:11.029Z,96.86
2022-11-10T03:59:31.086Z,96.84
2022-11-10T03:59:51.139Z,96.88
2022-11-10T04:00:11.198Z,97.04
2022-11-10T04:00:31.259Z,97.13
2022-11-10T04:00:51.304Z,97.14
2022-11-10T04:01:11.351Z,97.13
2022-11-10T04:01:31.450Z,97.24
2022-11-10T04:01:51.522Z,97.37
2022-11-10T04:02:11.585Z,97.47
2022-11-10T04:02:31.583Z,97.47
2022-11-10T04:02:51.646Z,97.45
2022-11-10T04:03:11.701Z,97.44
2022-11-10T04:03:31.760Z,97.36
2022-11-10T04:03:51.949Z,97.37
2022-11-10T04:04:11.860Z,97.25
2022-11-10T04:04:31.949Z,97.22
2022-11-10T04:04:52.023Z,97.2
2022-11-10T04:05:12.085Z,97.23
2022-11-10T04:05:32.146Z,97.19
2022-11-10T04:05:52.193Z,97.13
2022-11-10T04:06:12.239Z,97.1
2022-11-10T04:06:32.525Z,97.11
2022-11-10T04:06:52.393Z,97.06
2022-11-10T04:07:12.492Z,97.06
2022-11-10T04:07:32.488Z,96.99
2022-11-10T04:07:52.548Z,96.93
2022-11-10T04:08:12.594Z,96.8
2022-11-10T04:08:32.652Z,96.74
2022-11-10T04:08:52.785Z,96.68
2022-11-10T04:09:12.762Z,96.64
2022-11-10T04:09:32.809Z,96.68
2022-11-10T04:09:52.860Z,96.69
2022-11-10T04:10:12.921Z,96.73
2022-11-10T04:10:32.964Z,96.75
2022-11-10T04:10:53.026Z,96.8
2022-11-10T04:11:13.084Z,96.89
2022-11-10T04:11:33.138Z,96.95
2022-11-10T04:11:53.182Z,96.95
2022-11-10T04:12:13.253Z,96.95
2022-11-10T04:12:33.323Z,96.9
2022-11-10T04:12:53.365Z,96.9
2022-11-10T04:13:13.431Z,96.81
2022-11-10T04:13:33.482Z,96.75
2022-11-10T04:13:53.646Z,96.64
2022-11-10T04:14:13.598Z,96.58
2022-11-10T04:14:33.650Z,96.59
2022-11-10T04:14:53.711Z,96.63
2022-11-10T04:15:13.751Z,96.64
2022-11-10T04:15:33.813Z,96.78
2022-11-10T04:15:53.881Z,96.74
2022-11-10T04:16:13.933Z,96.61
2022-11-10T04:16:33.993Z,96.59
2022-11-10T04:16:54.052Z,96.53
2022-11-10T04:17:14.109Z,96.59
2022-11-10T04:17:34.163Z,96.6
2022-11-10T04:17:54.221Z,96.58
2022-11-10T04:18:14.281Z,96.43
2022-11-10T04:18:34.342Z,96.3
2022-11-10T04:18:54.488Z,96.25
2022-11-10T04:19:14.445Z,96.24